createdAt,value
2023-05-10T00:00:36.562Z,2568.00
2023-05-10T00:01:36.772Z,2565.00
2023-05-10T00:02:36.814Z,2571.00
2023-05-10T00:03:36.849Z,2561.00
2023-05-10T00:04:36.792Z,2552.00
2023-05-10T00:05:37.056Z,2562.00
2023-05-10T00:06:36.869Z,2547.00
2023-05-10T00:07:36.912Z,2521.00
2023-05-10T00:08:36.943Z,2532.00
2023-05-10T00:09:36.985Z,2528.00
2023-05-10T00:10:37.028Z,2540.00
2023-05-10T00:11:37.198Z,2542.00
2023-05-10T00:12:37.144Z,2525.00
2023-05-10T00:13:37.156Z,2527.00
2023-05-10T00:14:37.176Z,2536.00
2023-05-10T00:15:37.257Z,2544.00
2023-05-10T00:16:37.419Z,2524.00
2023-05-10T00:17:37.433Z,2520.00
2023-05-10T00:18:37.424Z,2535.00
2023-05-10T00:19:37.493Z,2519.00
2023-05-10T00:20:37.511Z,2498.00
2023-05-10T00:21:37.585Z,2489.00
2023-05-10T00:22:37.635Z,2506.00
2023-05-10T00:23:37.673Z,2512.00
2023-05-10T00:24:37.778Z,2510.00
2023-05-10T00:25:37.724Z,2483.00
2023-05-10T00:26:37.791Z,2517.00
2023-05-10T00:27:37.824Z,2511.00
2023-05-10T00:28:37.774Z,2496.00
2023-05-10T00:29:37.760Z,2513.00
2023-05-10T00:30:37.792Z,2512.00
2023-05-10T00:31:37.847Z,2510.00
2023-05-10T00:32:37.873Z,2529.00
2023-05-10T00:33:37.844Z,2503.00
2023-05-10T00:34:37.890Z,2514.00
2023-05-10T00:35:37.935Z,2510.00
2023-05-10T00:36:37.962Z,2522.00
2023-05-10T00:37:38.027Z,2498.00
2023-05-10T00:38:38.060Z,2481.00
2023-05-10T00:39:38.102Z,2487.00
2023-05-10T00:40:38.120Z,2484.00
2023-05-10T00:41:38.150Z,2479.00
2023-05-10T00:42:38.164Z,2456.00
2023-05-10T00:43:38.291Z,2460.00
2023-05-10T00:44:38.332Z,2478.00
2023-05-10T00:45:38.269Z,2473.00
2023-05-10T00:46:38.351Z,2473.00
2023-05-10T00:47:38.493Z,2476.00
2023-05-10T00:48:38.414Z,2474.00
2023-05-10T00:49:38.463Z,2459.00
2023-05-10T00:50:38.499Z,2431.00
2023-05-10T00:51:38.538Z,2446.00
2023-05-10T00:52:38.544Z,2447.00
2023-05-10T00:53:38.546Z,2431.00
2023-05-10T00:54:38.570Z,2448.00
2023-05-10T00:55:38.588Z,2424.00
2023-05-10T00:56:38.661Z,2401.00
2023-05-10T00:57:38.669Z,2392.00
2023-05-10T00:58:38.759Z,2407.00
2023-05-10T00:59:38.756Z,2423.00
2023-05-10T01:00:38.814Z,2406.00
2023-05-10T01:01:38.877Z,2416.00
2023-05-10T01:02:38.962Z,2427.00
2023-05-10T01:03:39.007Z,2430.00
2023-05-10T01:04:38.983Z,2451.00
2023-05-10T01:05:38.994Z,2420.00
2023-05-10T01:06:39.050Z,2412.00
2023-05-10T01:07:39.175Z,2438.00
2023-05-10T01:08:39.124Z,2440.00
2023-05-10T01:09:39.176Z,2447.00
2023-05-10T01:10:39.206Z,2453.00
2023-05-10T01:11:39.292Z,2444.00
2023-05-10T01:12:39.472Z,2418.00
2023-05-10T01:13:39.355Z,2413.00
2023-05-10T01:14:39.371Z,2410.00
2023-05-10T01:15:39.491Z,2410.00
2023-05-10T01:16:39.556Z,2396.00
2023-05-10T01:17:39.543Z,2391.00
2023-05-10T01:18:39.552Z,2411.00
2023-05-10T01:19:39.597Z,2411.00
2023-05-10T01:20:39.602Z,2446.00
2023-05-10T01:21:39.632Z,2437.00
2023-05-10T01:22:39.774Z,2436.00
2023-05-10T01:23:39.867Z,2450.00
2023-05-10T01:24:39.841Z,2432.00
2023-05-10T01:25:39.923Z,2458.00
2023-05-10T01:26:39.875Z,2478.00
2023-05-10T01:27:39.849Z,2469.00
2023-05-10T01:28:39.957Z,2473.00
2023-05-10T01:29:39.942Z,2479.00
2023-05-10T01:30:39.993Z,2462.00
2023-05-10T01:31:40.063Z,2461.00
2023-05-10T01:32:40.094Z,2444.00
2023-05-10T01:33:40.119Z,2397.00
2023-05-10T01:34:40.163Z,2377.00
2023-05-10T01:35:40.207Z,2354.00
2023-05-10T01:36:40.268Z,2350.00
2023-05-10T01:37:40.318Z,2333.00
2023-05-10T01:38:40.514Z,2334.00
2023-05-10T01:39:40.396Z,2318.00
2023-05-10T01:40:40.408Z,2342.00
2023-05-10T01:41:40.584Z,2341.00
2023-05-10T01:42:40.439Z,2350.00
2023-05-10T01:43:40.455Z,2334.00
2023-05-10T01:44:40.518Z,2312.00
2023-05-10T01:45:40.547Z,2299.00
2023-05-10T01:46:40.582Z,2288.00
2023-05-10T01:47:40.592Z,2292.00
2023-05-10T01:48:40.580Z,2289.00
2023-05-10T01:49:40.615Z,2276.00
2023-05-10T01:50:40.737Z,2305.00
2023-05-10T01:51:40.780Z,2292.00
2023-05-10T01:52:40.704Z,2263.00
2023-05-10T01:53:40.751Z,2264.00
2023-05-10T01:54:40.765Z,2278.00
2023-05-10T01:55:40.804Z,2254.00
2023-05-10T01:56:40.853Z,2281.00
2023-05-10T01:57:40.893Z,2259.00
2023-05-10T01:58:40.911Z,2287.00
2023-05-10T01:59:40.911Z,2270.00
2023-05-10T02:00:41.109Z,2273.00
2023-05-10T02:01:41.107Z,2268.00
2023-05-10T02:02:41.015Z,2273.00
2023-05-10T02:03:41.335Z,2268.00
2023-05-10T02:04:41.193Z,2257.00
2023-05-10T02:05:41.234Z,2257.00
2023-05-10T02:06:41.250Z,2264.00
2023-05-10T02:07:41.292Z,2267.00
2023-05-10T02:08:41.418Z,2274.00
2023-05-10T02:09:41.366Z,2249.00
2023-05-10T02:10:41.358Z,2268.00
2023-05-10T02:11:41.315Z,2263.00
2023-05-10T02:12:41.413Z,2274.00
2023-05-10T02:13:41.406Z,2283.00
2023-05-10T02:14:41.439Z,2270.00
2023-05-10T02:15:41.456Z,2284.00
2023-05-10T02:16:41.656Z,2276.00
2023-05-10T02:17:41.565Z,2253.00
2023-05-10T02:18:41.545Z,2251.00
2023-05-10T02:19:41.575Z,2236.00
2023-05-10T02:20:41.632Z,2220.00
2023-05-10T02:21:41.646Z,2205.00
2023-05-10T02:22:41.720Z,2203.00
2023-05-10T02:23:41.853Z,2193.00
2023-05-10T02:24:41.736Z,2204.00
2023-05-10T02:25:41.958Z,2178.00
2023-05-10T02:26:41.931Z,2182.00
2023-05-10T02:27:41.860Z,2180.00
2023-05-10T02:28:42.037Z,2164.00
2023-05-10T02:29:41.924Z,2164.00
2023-05-10T02:30:41.963Z,2175.00
2023-05-10T02:31:42.140Z,2152.00
2023-05-10T02:32:42.093Z,2169.00
2023-05-10T02:33:42.124Z,2148.00
2023-05-10T02:34:42.131Z,2150.00
2023-05-10T02:35:42.191Z,2145.00
2023-05-10T02:36:42.220Z,2143.00
2023-05-10T02:37:42.265Z,2141.00
2023-05-10T02:38:42.268Z,2159.00
2023-05-10T02:39:42.410Z,2129.00
2023-05-10T02:40:42.425Z,2163.00
2023-05-10T02:41:42.361Z,2144.00
2023-05-10T02:42:42.420Z,2119.00
2023-05-10T02:43:42.481Z,2127.00
2023-05-10T02:44:42.456Z,2111.00
2023-05-10T02:45:42.575Z,2139.00
2023-05-10T02:46:42.502Z,2113.00
2023-05-10T02:47:42.624Z,2117.00
2023-05-10T02:48:42.544Z,2114.00
2023-05-10T02:49:42.569Z,2110.00
2023-05-10T02:50:42.589Z,2104.00
2023-05-10T02:51:42.623Z,2106.00
2023-05-10T02:52:42.676Z,2097.00
2023-05-10T02:53:42.728Z,2111.00
2023-05-10T02:54:42.734Z,2122.00
2023-05-10T02:55:42.780Z,2112.00
2023-05-10T02:56:42.818Z,2098.00
2023-05-10T02:57:42.854Z,2063.00
2023-05-10T02:58:42.870Z,2056.00
2023-05-10T02:59:42.889Z,2050.00
2023-05-10T03:00:42.932Z,2056.00
2023-05-10T03:01:43.029Z,2049.00
2023-05-10T03:02:43.148Z,2032.00
2023-05-10T03:03:43.046Z,2062.00
2023-05-10T03:04:43.085Z,2062.00
2023-05-10T03:05:43.110Z,2073.00
2023-05-10T03:06:43.141Z,2069.00
2023-05-10T03:07:43.200Z,2050.00
2023-05-10T03:08:43.234Z,2059.00
2023-05-10T03:09:43.279Z,2041.00
2023-05-10T03:10:43.332Z,2027.00
2023-05-10T03:11:43.345Z,2041.00
2023-05-10T03:12:43.399Z,2035.00
2023-05-10T03:13:43.565Z,2042.00
2023-05-10T03:14:43.427Z,2060.00
2023-05-10T03:15:43.486Z,2057.00
2023-05-10T03:16:44.877Z,2039.00
2023-05-10T03:17:43.571Z,2010.00
2023-05-10T03:18:43.556Z,2024.00
2023-05-10T03:19:43.737Z,2009.00
2023-05-10T03:20:43.725Z,2021.00
2023-05-10T03:21:43.633Z,2019.00
2023-05-10T03:22:43.758Z,2022.00
2023-05-10T03:23:43.848Z,2041.00
2023-05-10T03:24:43.752Z,2038.00
2023-05-10T03:25:43.776Z,2060.00
2023-05-10T03:26:43.799Z,2042.00
2023-05-10T03:27:43.823Z,2055.00
2023-05-10T03:28:43.852Z,2037.00
2023-05-10T03:29:43.882Z,2049.00
2023-05-10T03:30:43.929Z,2066.00
2023-05-10T03:31:44.054Z,2063.00
2023-05-10T03:32:44.021Z,2067.00
2023-05-10T03:33:43.997Z,2087.00
2023-05-10T03:34:44.088Z,2093.00
2023-05-10T03:35:44.048Z,2093.00
2023-05-10T03:36:44.124Z,2104.00
2023-05-10T03:37:44.164Z,2098.00
2023-05-10T03:38:44.159Z,2108.00
2023-05-10T03:39:44.206Z,2082.00
2023-05-10T03:40:44.219Z,2096.00
2023-05-10T03:41:44.269Z,2101.00
2023-05-10T03:42:44.293Z,2082.00
2023-05-10T03:43:44.450Z,2089.00
2023-05-10T03:44:44.381Z,2073.00
2023-05-10T03:45:44.428Z,2088.00
2023-05-10T03:46:44.461Z,2085.00
2023-05-10T03:47:44.483Z,2066.00
2023-05-10T03:48:44.507Z,2037.00
2023-05-10T03:49:44.536Z,2045.00
2023-05-10T03:50:44.552Z,2056.00
2023-05-10T03:51:44.701Z,2054.00
2023-05-10T03:52:44.652Z,2024.00
2023-05-10T03:53:44.694Z,2018.00
2023-05-10T03:54:44.721Z,1999.00
2023-05-10T03:55:44.763Z,1989.00
2023-05-10T03:56:44.810Z,1993.00
2023-05-10T03:57:44.914Z,1990.00
2023-05-10T03:58:45.078Z,1988.00
2023-05-10T03:59:45.038Z,1989.00
2023-05-10T04:00:44.964Z,1999.00
2023-05-10T04:01:45.066Z,2003.00
2023-05-10T04:02:46.264Z,1988.00
2023-05-10T04:03:45.189Z,2011.00
2023-05-10T04:04:45.228Z,2003.00
2023-05-10T04:05:45.168Z,1985.00
2023-05-10T04:06:45.202Z,1970.00
2023-05-10T04:07:45.268Z,1947.00
2023-05-10T04:08:45.287Z,1949.00
2023-05-10T04:09:45.309Z,1909.00
2023-05-10T04:10:45.341Z,1905.00
2023-05-10T04:11:45.359Z,1932.00
2023-05-10T04:12:45.426Z,1919.00
2023-05-10T04:13:45.415Z,1905.00
2023-05-10T04:14:45.458Z,1896.00
2023-05-10T04:15:45.498Z,1936.00
2023-05-10T04:16:45.595Z,1934.00
2023-05-10T04:17:45.589Z,1936.00
2023-05-10T04:18:45.537Z,1911.00
2023-05-10T04:19:45.703Z,1925.00
2023-05-10T04:20:45.627Z,1937.00
2023-05-10T04:21:45.651Z,1937.00
2023-05-10T04:22:45.683Z,1919.00
2023-05-10T04:23:45.711Z,1943.00
2023-05-10T04:24:45.760Z,1938.00
2023-05-10T04:25:45.790Z,1954.00
2023-05-10T04:26:45.823Z,1943.00
2023-05-10T04:27:45.863Z,1937.00
2023-05-10T04:28:45.899Z,1948.00
2023-05-10T04:29:45.923Z,1922.00
2023-05-10T04:30:45.986Z,1918.00
2023-05-10T04:31:46.061Z,1921.00
2023-05-10T04:32:46.042Z,1896.00
2023-05-10T04:33:46.118Z,1905.00
2023-05-10T04:34:46.061Z,1902.00
2023-05-10T04:35:46.069Z,1895.00
2023-05-10T04:36:46.099Z,1880.00
2023-05-10T04:37:46.114Z,1850.00
2023-05-10T04:38:46.136Z,1887.00
2023-05-10T04:39:46.206Z,1903.00
2023-05-10T04:40:46.220Z,1900.00
2023-05-10T04:41:46.262Z,1911.00
2023-05-10T04:42:46.310Z,1920.00
2023-05-10T04:43:46.346Z,1911.00
2023-05-10T04:44:46.504Z,1947.00
2023-05-10T04:45:46.457Z,1956.00
2023-05-10T04:46:46.582Z,1943.00
2023-05-10T04:47:46.625Z,1945.00
2023-05-10T04:48:46.555Z,1953.00
2023-05-10T04:49:46.581Z,1960.00
2023-05-10T04:50:46.606Z,1957.00
2023-05-10T04:51:46.660Z,1971.00
2023-05-10T04:52:46.689Z,1960.00
2023-05-10T04:54:01.678Z,1961.00
2023-05-10T04:54:47.716Z,1963.00
2023-05-10T04:55:46.712Z,1966.00
2023-05-10T04:56:46.856Z,1970.00
2023-05-10T04:57:46.687Z,1970.00
2023-05-10T04:58:46.699Z,1960.00
2023-05-10T04:59:48.001Z,1951.00
2023-05-10T05:00:46.664Z,1949.00
2023-05-10T05:01:46.688Z,1933.00
2023-05-10T05:02:46.818Z,1957.00
2023-05-10T05:03:46.735Z,1946.00
2023-05-10T05:04:46.690Z,1975.00
2023-05-10T05:05:46.763Z,1989.00
2023-05-10T05:06:46.790Z,2008.00
2023-05-10T05:07:46.821Z,2035.00
2023-05-10T05:08:46.879Z,2055.00
2023-05-10T05:09:46.891Z,2084.00
2023-05-10T05:10:46.907Z,2088.00
2023-05-10T05:11:46.981Z,2103.00
2023-05-10T05:12:46.984Z,2111.00
2023-05-10T05:13:46.996Z,2105.00
2023-05-10T05:14:47.061Z,2090.00
2023-05-10T05:15:47.138Z,2058.00
2023-05-10T05:16:47.128Z,2054.00
2023-05-10T05:17:47.197Z,2030.00
2023-05-10T05:18:47.174Z,2006.00
2023-05-10T05:19:47.235Z,1998.00
2023-05-10T05:20:47.262Z,2025.00
2023-05-10T05:21:47.313Z,2017.00
2023-05-10T05:22:47.353Z,2049.00
2023-05-10T05:23:47.399Z,2081.00
2023-05-10T05:24:47.451Z,2101.00
2023-05-10T05:25:47.464Z,2117.00
2023-05-10T05:26:47.491Z,2144.00
2023-05-10T05:27:47.500Z,2172.00
2023-05-10T05:28:47.566Z,2218.00
2023-05-10T05:29:47.582Z,2255.00
2023-05-10T05:30:47.630Z,2324.00
2023-05-10T05:31:47.693Z,2448.00
2023-05-10T05:32:47.695Z,2500.00
2023-05-10T05:33:47.739Z,2644.00
2023-05-10T05:34:47.774Z,2686.00
2023-05-10T05:35:47.813Z,2745.00
2023-05-10T05:36:48.554Z,2757.00
2023-05-10T05:37:47.880Z,2860.00
2023-05-10T05:38:47.888Z,2925.00
2023-05-10T05:39:47.930Z,3027.00
2023-05-10T05:40:47.990Z,3000.00
2023-05-10T05:41:48.001Z,3022.00
2023-05-10T05:42:48.054Z,3038.00
2023-05-10T05:43:48.057Z,3051.00
2023-05-10T05:44:48.079Z,3074.00
2023-05-10T05:45:48.119Z,3116.00
2023-05-10T05:46:48.109Z,3158.00
2023-05-10T05:47:48.206Z,3168.00
2023-05-10T05:48:48.193Z,3196.00
2023-05-10T05:49:48.609Z,3214.00
2023-05-10T05:50:48.214Z,3238.00
2023-05-10T05:51:48.304Z,3273.00
2023-05-10T05:52:48.291Z,3277.00
2023-05-10T05:53:48.315Z,3291.00
2023-05-10T05:54:48.378Z,3299.00
2023-05-10T05:55:48.362Z,3317.00
2023-05-10T05:56:48.401Z,3170.00
2023-05-10T05:57:48.431Z,3127.00
2023-05-10T05:58:48.454Z,3109.00
2023-05-10T05:59:48.469Z,3138.00
2023-05-10T06:00:48.542Z,3100.00
2023-05-10T06:01:48.533Z,3031.00
2023-05-10T06:02:48.664Z,2995.00
2023-05-10T06:03:49.854Z,3013.00
2023-05-10T06:04:48.624Z,3017.00
2023-05-10T06:05:48.657Z,3030.00
2023-05-10T06:06:48.659Z,3109.00
2023-05-10T06:07:48.702Z,3055.00
2023-05-10T06:08:48.711Z,3073.00
2023-05-10T06:09:48.735Z,3146.00
2023-05-10T06:10:48.769Z,3074.00
2023-05-10T06:11:48.781Z,3171.00
2023-05-10T06:12:48.810Z,3182.00
2023-05-10T06:13:48.839Z,3094.00
2023-05-10T06:14:49.119Z,3069.00
2023-05-10T06:15:48.851Z,3143.00
2023-05-10T06:16:48.928Z,3177.00
2023-05-10T06:17:48.998Z,3163.00
2023-05-10T06:18:48.998Z,3198.00
2023-05-10T06:19:49.112Z,3225.00
2023-05-10T06:20:49.189Z,3238.00
2023-05-10T06:21:49.165Z,3242.00
2023-05-10T06:22:49.218Z,3246.00
2023-05-10T06:23:49.256Z,3253.00
2023-05-10T06:24:49.317Z,3271.00
2023-05-10T06:25:49.332Z,3291.00
2023-05-10T06:26:49.399Z,3295.00
2023-05-10T06:27:51.948Z,3318.00
2023-05-10T06:28:49.420Z,3319.00
2023-05-10T06:29:52.164Z,3327.00
2023-05-10T06:30:49.386Z,3322.00
2023-05-10T06:31:49.393Z,3335.00
2023-05-10T06:32:49.385Z,3357.00
2023-05-10T06:33:49.367Z,3393.00
2023-05-10T06:34:49.632Z,3473.00
2023-05-10T06:35:49.362Z,3412.00
2023-05-10T06:36:49.359Z,3369.00
2023-05-10T06:37:49.337Z,3208.00
2023-05-10T06:38:49.360Z,3098.00
2023-05-10T06:39:49.672Z,3075.00
2023-05-10T06:40:49.329Z,2904.00
2023-05-10T06:41:49.313Z,2791.00
2023-05-10T06:42:49.318Z,2653.00
2023-05-10T06:43:49.349Z,2618.00
2023-05-10T06:44:49.371Z,2551.00
2023-05-10T06:45:49.472Z,2515.00
2023-05-10T06:46:49.491Z,2491.00
2023-05-10T06:47:49.497Z,2490.00
2023-05-10T06:48:49.550Z,2546.00
2023-05-10T06:49:49.552Z,2584.00
2023-05-10T06:50:49.601Z,2549.00
2023-05-10T06:51:49.640Z,2517.00
2023-05-10T06:52:51.155Z,2494.00
2023-05-10T06:53:49.686Z,2494.00
2023-05-10T06:54:49.651Z,2469.00
2023-05-10T06:55:49.646Z,2479.00
2023-05-10T06:56:49.619Z,2445.00
2023-05-10T06:57:49.630Z,2432.00
2023-05-10T06:58:49.724Z,2439.00
2023-05-10T06:59:49.610Z,2436.00
2023-05-10T07:00:49.684Z,2453.00
2023-05-10T07:01:49.626Z,2430.00
2023-05-10T07:02:49.710Z,2448.00
2023-05-10T07:03:49.585Z,2422.00
2023-05-10T07:04:49.648Z,2404.00
2023-05-10T07:05:49.563Z,2390.00
2023-05-10T07:06:49.566Z,2381.00
2023-05-10T07:07:49.548Z,2371.00
2023-05-10T07:08:49.565Z,2404.00
2023-05-10T07:09:49.541Z,2414.00
2023-05-10T07:10:49.541Z,2489.00
2023-05-10T07:11:49.520Z,2538.00
2023-05-10T07:12:49.687Z,2635.00
2023-05-10T07:13:49.551Z,2718.00
2023-05-10T07:14:49.641Z,2817.00
2023-05-10T07:15:49.512Z,2821.00
2023-05-10T07:16:49.489Z,2826.00
2023-05-10T07:17:49.560Z,2849.00
2023-05-10T07:18:49.491Z,2878.00
2023-05-10T07:19:49.484Z,2899.00
2023-05-10T07:20:49.470Z,2932.00
2023-05-10T07:21:49.462Z,2951.00
2023-05-10T07:22:49.464Z,2999.00
2023-05-10T07:23:49.484Z,3010.00
2023-05-10T07:24:49.458Z,3016.00
2023-05-10T07:25:49.434Z,2991.00
2023-05-10T07:26:49.643Z,2905.00
2023-05-10T07:27:49.476Z,2847.00
2023-05-10T07:28:49.430Z,2819.00
2023-05-10T07:29:49.438Z,2787.00
2023-05-10T07:30:49.507Z,2799.00
2023-05-10T07:31:49.685Z,2797.00
2023-05-10T07:32:49.403Z,2890.00
2023-05-10T07:33:49.381Z,2913.00
2023-05-10T07:34:49.359Z,2937.00
2023-05-10T07:35:49.369Z,2955.00
2023-05-10T07:36:49.375Z,2960.00
2023-05-10T07:37:49.366Z,2990.00
2023-05-10T07:38:49.355Z,2990.00
2023-05-10T07:39:49.353Z,2991.00
2023-05-10T07:40:49.332Z,2974.00
2023-05-10T07:41:49.337Z,3001.00
2023-05-10T07:42:49.301Z,2990.00
2023-05-10T07:43:49.340Z,2976.00
2023-05-10T07:44:49.364Z,2960.00
2023-05-10T07:45:49.413Z,2884.00
2023-05-10T07:46:49.538Z,2810.00
2023-05-10T07:47:49.504Z,2784.00
2023-05-10T07:48:49.489Z,2756.00
2023-05-10T07:49:49.658Z,2711.00
2023-05-10T07:50:49.559Z,2689.00
2023-05-10T07:51:49.600Z,2663.00
2023-05-10T07:52:49.623Z,2631.00
2023-05-10T07:53:49.692Z,2628.00
2023-05-10T07:54:50.160Z,2698.00
2023-05-10T07:55:49.774Z,2750.00
2023-05-10T07:56:49.830Z,2762.00
2023-05-10T07:57:49.859Z,2738.00
2023-05-10T07:58:49.918Z,2721.00
2023-05-10T07:59:50.165Z,2722.00
2023-05-10T08:00:49.994Z,2753.00
2023-05-10T08:01:50.006Z,2736.00
2023-05-10T08:02:50.061Z,2746.00
2023-05-10T08:03:50.177Z,2662.00
2023-05-10T08:04:50.175Z,2627.00
2023-05-10T08:05:50.193Z,2596.00
2023-05-10T08:06:50.182Z,2575.00
2023-05-10T08:07:50.188Z,2600.00
2023-05-10T08:08:50.232Z,2585.00
2023-05-10T08:09:50.219Z,2647.00
2023-05-10T08:10:50.230Z,2612.00
2023-05-10T08:11:50.231Z,2630.00
2023-05-10T08:12:50.247Z,2682.00
2023-05-10T08:13:50.292Z,2702.00
2023-05-10T08:14:50.663Z,2749.00
2023-05-10T08:15:50.365Z,2779.00
2023-05-10T08:16:50.379Z,2813.00
2023-05-10T08:17:50.421Z,2827.00
2023-05-10T08:18:50.477Z,2840.00
2023-05-10T08:19:50.673Z,2850.00
2023-05-10T08:20:50.541Z,2851.00
2023-05-10T08:21:50.556Z,2843.00
2023-05-10T08:22:51.825Z,2882.00
2023-05-10T08:23:50.646Z,2927.00
2023-05-10T08:24:51.177Z,3019.00
2023-05-10T08:25:50.731Z,3067.00
2023-05-10T08:26:50.744Z,3117.00
2023-05-10T08:27:50.791Z,3160.00
2023-05-10T08:28:50.827Z,3212.00
2023-05-10T08:29:50.885Z,3242.00
2023-05-10T08:30:50.877Z,3282.00
2023-05-10T08:31:50.897Z,3275.00
2023-05-10T08:32:50.898Z,3301.00
2023-05-10T08:33:50.904Z,3303.00
2023-05-10T08:34:50.957Z,3285.00
2023-05-10T08:35:51.023Z,3140.00
2023-05-10T08:36:51.017Z,3087.00
2023-05-10T08:37:51.044Z,2960.00
2023-05-10T08:38:52.119Z,2928.00
2023-05-10T08:39:51.191Z,2914.00
2023-05-10T08:40:51.126Z,2916.00
2023-05-10T08:41:51.154Z,2865.00
2023-05-10T08:42:51.185Z,2883.00
2023-05-10T08:43:51.264Z,2652.00
2023-05-10T08:44:51.702Z,2486.00
2023-05-10T08:45:51.345Z,2441.00
2023-05-10T08:46:51.430Z,2292.00
2023-05-10T08:47:51.469Z,2232.00
2023-05-10T08:48:51.462Z,2141.00
2023-05-10T08:49:51.533Z,2058.00
2023-05-10T08:50:51.681Z,2002.00
2023-05-10T08:51:51.550Z,1931.00
2023-05-10T08:52:51.604Z,1889.00
2023-05-10T08:53:51.666Z,1874.00
2023-05-10T08:54:51.779Z,1838.00
2023-05-10T08:55:51.713Z,1805.00
2023-05-10T08:56:51.703Z,1827.00
2023-05-10T08:57:51.731Z,1844.00
2023-05-10T08:58:51.717Z,1854.00
2023-05-10T08:59:51.754Z,1838.00
2023-05-10T09:00:51.830Z,1901.00
2023-05-10T09:01:51.766Z,1989.00
2023-05-10T09:02:51.878Z,2068.00
2023-05-10T09:03:51.869Z,2155.00
2023-05-10T09:04:51.964Z,2198.00
2023-05-10T09:05:52.211Z,2233.00
2023-05-10T09:06:51.826Z,2269.00
2023-05-10T09:07:51.983Z,2260.00
2023-05-10T09:08:51.850Z,2310.00
2023-05-10T09:09:51.920Z,2350.00
2023-05-10T09:10:52.183Z,2340.00
2023-05-10T09:11:51.962Z,2374.00
2023-05-10T09:12:52.171Z,2337.00
2023-05-10T09:13:52.208Z,2334.00
2023-05-10T09:14:52.093Z,2374.00
2023-05-10T09:15:52.193Z,2396.00
2023-05-10T09:16:52.200Z,2415.00
2023-05-10T09:17:52.228Z,2434.00
2023-05-10T09:18:52.230Z,2450.00
2023-05-10T09:19:52.202Z,2455.00
2023-05-10T09:20:52.682Z,2464.00
2023-05-10T09:21:52.260Z,2488.00
2023-05-10T09:22:52.271Z,2465.00
2023-05-10T09:23:53.228Z,2458.00
2023-05-10T09:24:52.315Z,2444.00
2023-05-10T09:25:52.678Z,2456.00
2023-05-10T09:26:52.339Z,2374.00
2023-05-10T09:27:52.409Z,2362.00
2023-05-10T09:28:52.401Z,2377.00
2023-05-10T09:29:52.408Z,2393.00
2023-05-10T09:30:52.488Z,2372.00
2023-05-10T09:31:52.533Z,2396.00
2023-05-10T09:32:52.530Z,2458.00
2023-05-10T09:33:52.516Z,2518.00
2023-05-10T09:34:52.548Z,2555.00
2023-05-10T09:35:52.707Z,2556.00
2023-05-10T09:36:52.594Z,2567.00
2023-05-10T09:37:52.659Z,2554.00
2023-05-10T09:38:52.719Z,2598.00
2023-05-10T09:39:52.714Z,2648.00
2023-05-10T09:40:53.198Z,2701.00
2023-05-10T09:41:52.771Z,2737.00
2023-05-10T09:42:52.783Z,2802.00
2023-05-10T09:43:52.806Z,2854.00
2023-05-10T09:44:52.859Z,2874.00
2023-05-10T09:45:53.225Z,2905.00
2023-05-10T09:46:52.931Z,2914.00
2023-05-10T09:47:53.053Z,2919.00
2023-05-10T09:48:53.007Z,2928.00
2023-05-10T09:49:53.089Z,2941.00
2023-05-10T09:50:53.038Z,2848.00
2023-05-10T09:51:53.076Z,2867.00
2023-05-10T09:52:53.085Z,2870.00
2023-05-10T09:53:53.166Z,2869.00
2023-05-10T09:54:53.179Z,2874.00
2023-05-10T09:55:53.209Z,2877.00
2023-05-10T09:56:53.220Z,2891.00
2023-05-10T09:57:53.243Z,2898.00
2023-05-10T09:58:53.253Z,2876.00
2023-05-10T09:59:53.271Z,2869.00
2023-05-10T10:00:53.314Z,2858.00
2023-05-10T10:01:53.327Z,2835.00
2023-05-10T10:02:53.392Z,2819.00
2023-05-10T10:03:53.381Z,2812.00
2023-05-10T10:04:53.482Z,2796.00
2023-05-10T10:05:53.438Z,2782.00
2023-05-10T10:06:53.453Z,2674.00
2023-05-10T10:07:53.483Z,2698.00
2023-05-10T10:08:56.181Z,2714.00
2023-05-10T10:09:53.510Z,2715.00
2023-05-10T10:10:53.500Z,2716.00
2023-05-10T10:11:53.488Z,2721.00
2023-05-10T10:12:53.464Z,2709.00
2023-05-10T10:13:53.479Z,2704.00
2023-05-10T10:14:53.474Z,2701.00
2023-05-10T10:15:53.760Z,2717.00
2023-05-10T10:17:06.610Z,2696.00
2023-05-10T10:17:54.528Z,2518.00
2023-05-10T10:18:53.442Z,2343.00
2023-05-10T10:19:53.442Z,2224.00
2023-05-10T10:20:53.407Z,2163.00
2023-05-10T10:21:53.397Z,2246.00
2023-05-10T10:22:53.404Z,2148.00
2023-05-10T10:23:53.406Z,2084.00
2023-05-10T10:24:53.399Z,2020.00
2023-05-10T10:25:53.393Z,1926.00
2023-05-10T10:26:53.380Z,1689.00
2023-05-10T10:27:53.405Z,1548.00
2023-05-10T10:28:53.367Z,1431.00
2023-05-10T10:29:53.362Z,1272.00
2023-05-10T10:30:53.359Z,1177.00
2023-05-10T10:31:53.503Z,1068.00
2023-05-10T10:32:53.407Z,968.00
2023-05-10T10:33:53.380Z,886.00
2023-05-10T10:34:53.378Z,801.00
2023-05-10T10:35:53.753Z,759.00
2023-05-10T10:36:53.419Z,656.00
2023-05-10T10:37:53.452Z,577.00
2023-05-10T10:38:53.490Z,589.00
2023-05-10T10:39:53.497Z,596.00
2023-05-10T10:40:53.531Z,660.00
2023-05-10T10:41:53.522Z,800.00
2023-05-10T10:42:53.544Z,894.00
2023-05-10T10:43:53.629Z,936.00
2023-05-10T10:44:53.623Z,1059.00
2023-05-10T10:45:53.686Z,1199.00
2023-05-10T10:46:53.726Z,1306.00
2023-05-10T10:47:53.740Z,1374.00
2023-05-10T10:48:53.759Z,1479.00
2023-05-10T10:49:53.834Z,1421.00
2023-05-10T10:50:53.861Z,1446.00
2023-05-10T10:51:53.931Z,1494.00
2023-05-10T10:52:54.033Z,1465.00
2023-05-10T10:53:54.014Z,1532.00
2023-05-10T10:54:54.072Z,1566.00
2023-05-10T10:55:54.099Z,1616.00
2023-05-10T10:56:54.136Z,1644.00
2023-05-10T10:57:54.154Z,1669.00
2023-05-10T10:58:54.191Z,1688.00
2023-05-10T10:59:54.230Z,1767.00
2023-05-10T11:00:54.336Z,1922.00
2023-05-10T11:01:54.352Z,2030.00
2023-05-10T11:02:54.469Z,2241.00
2023-05-10T11:03:54.440Z,2341.00
2023-05-10T11:04:54.471Z,2511.00
2023-05-10T11:05:54.513Z,2659.00
2023-05-10T11:06:54.548Z,2664.00
2023-05-10T11:07:54.565Z,2663.00
2023-05-10T11:08:54.605Z,2625.00
2023-05-10T11:09:54.644Z,2591.00
2023-05-10T11:10:54.672Z,2557.00
2023-05-10T11:11:54.720Z,2455.00
2023-05-10T11:12:54.748Z,2455.00
2023-05-10T11:13:54.783Z,2451.00
2023-05-10T11:14:54.818Z,2420.00
2023-05-10T11:15:54.845Z,2413.00
2023-05-10T11:16:54.900Z,2417.00
2023-05-10T11:17:54.913Z,2396.00
2023-05-10T11:18:55.040Z,2388.00
2023-05-10T11:19:54.967Z,2378.00
2023-05-10T11:20:54.996Z,2383.00
2023-05-10T11:21:55.040Z,2353.00
2023-05-10T11:22:55.068Z,2343.00
2023-05-10T11:23:55.081Z,2325.00
2023-05-10T11:24:55.097Z,2335.00
2023-05-10T11:25:55.104Z,2315.00
2023-05-10T11:26:55.112Z,2288.00
2023-05-10T11:27:55.171Z,2273.00
2023-05-10T11:28:55.236Z,2259.00
2023-05-10T11:29:55.297Z,2260.00
2023-05-10T11:30:55.319Z,2249.00
2023-05-10T11:31:55.324Z,2257.00
2023-05-10T11:32:55.386Z,2242.00
2023-05-10T11:33:55.347Z,2249.00
2023-05-10T11:34:55.353Z,2251.00
2023-05-10T11:35:55.471Z,2252.00
2023-05-10T11:36:55.435Z,2252.00
2023-05-10T11:37:55.458Z,2246.00
2023-05-10T11:38:55.449Z,2241.00
2023-05-10T11:39:55.458Z,2255.00
2023-05-10T11:40:55.498Z,2245.00
2023-05-10T11:41:55.574Z,2238.00
2023-05-10T11:42:55.619Z,2244.00
2023-05-10T11:43:55.634Z,2229.00
2023-05-10T11:44:55.671Z,2214.00
2023-05-10T11:45:55.680Z,2209.00
2023-05-10T11:46:55.730Z,2207.00
2023-05-10T11:47:55.750Z,2188.00
2023-05-10T11:48:55.750Z,2163.00
2023-05-10T11:49:55.768Z,2160.00
2023-05-10T11:50:55.748Z,2122.00
2023-05-10T11:51:55.800Z,2114.00
2023-05-10T11:52:55.822Z,2094.00
2023-05-10T11:53:55.880Z,2033.00
2023-05-10T11:54:55.964Z,2035.00
2023-05-10T11:55:55.953Z,2007.00
2023-05-10T11:56:55.977Z,1991.00
2023-05-10T11:57:55.967Z,1992.00
2023-05-10T11:58:56.025Z,1964.00
2023-05-10T11:59:56.072Z,1964.00
2023-05-10T12:00:56.130Z,1969.00
2023-05-10T12:01:56.228Z,1961.00
2023-05-10T12:02:56.464Z,1950.00
2023-05-10T12:03:56.477Z,1944.00
2023-05-10T12:04:56.360Z,1911.00
2023-05-10T12:05:56.376Z,1903.00
2023-05-10T12:06:56.748Z,1927.00